Time;durP1;ratioP1;P1;durP2;ratioP2;P2;SDS_P1;SDS_P2;PMS_P1;PMS_P2;Temp;Humidity;BMP_temperature;BMP_pressure;BME280_temperature;BME280_humidity;BME280_pressure;Samples;Min_cycle;Max_cycle;Signal;HPM_P1;HPM_P2
2022/12/28 00:00:20;;;;;;;11.05;6.28;;;;;;;;;;5013447;28;20053;-74
2022/12/28 00:02:46;;;;;;;15.20;6.68;;;;;;;;;;5003916;28;20473;-74
2022/12/28 00:05:12;;;;;;;12.25;5.78;;;;;;;;;;5016675;28;20064;-74
2022/12/28 00:07:39;;;;;;;9.38;5.45;;;;;;;;;;5033961;28;20045;-74
2022/12/28 00:10:05;;;;;;;10.30;5.40;;;;;;;;;;4984069;28;20041;-74
2022/12/28 00:12:31;;;;;;;9.10;5.65;;;;;;;;;;4995435;28;20057;-74
2022/12/28 00:14:58;;;;;;;11.95;5.60;;;;;;;;;;5013546;28;20081;-74
2022/12/28 00:17:24;;;;;;;11.45;5.07;;;;;;;;;;5012726;28;20050;-74
2022/12/28 00:19:50;;;;;;;12.38;5.65;;;;;;;;;;5020655;28;20524;-74
2022/12/28 00:22:16;;;;;;;10.90;5.25;;;;;;;;;;5030164;28;20513;-74
2022/12/28 00:24:42;;;;;;;11.55;5.70;;;;;;;;;;5027559;28;20121;-74
2022/12/28 00:27:08;;;;;;;10.23;5.72;;;;;;;;;;5003224;28;20050;-74
2022/12/28 00:29:34;;;;;;;11.68;5.93;;;;;;;;;;4987111;28;20112;-74
2022/12/28 00:32:01;;;;;;;10.65;6.63;;;;;;;;;;4997125;28;20053;-74
2022/12/28 00:34:27;;;;;;;10.05;6.25;;;;;;;;;;5033608;28;20042;-74
2022/12/28 00:36:53;;;;;;;11.30;7.03;;;;;;;;;;5015615;28;20098;-74
2022/12/28 00:39:19;;;;;;;10.68;6.03;;;;;;;;;;5033280;28;20452;-74
2022/12/28 00:41:46;;;;;;;11.10;5.90;;;;;;;;;;5004717;28;20088;-74
2022/12/28 00:44:12;;;;;;;14.38;6.45;;;;;;;;;;5012988;28;20042;-74
2022/12/28 00:46:38;;;;;;;13.65;6.63;;;;;;;;;;4995241;28;20046;-74
2022/12/28 00:49:04;;;;;;;11.18;6.40;;;;;;;;;;5013945;28;20045;-74
2022/12/28 00:51:30;;;;;;;10.40;6.50;;;;;;;;;;5011063;28;20049;-74
2022/12/28 00:53:56;;;;;;;11.80;6.40;;;;;;;;;;5013604;28;20048;-74
2022/12/28 00:56:22;;;;;;;14.05;7.20;;;;;;;;;;4996373;28;20402;-74
2022/12/28 00:58:48;;;;;;;13.35;7.63;;;;;;;;;;4976230;28;20042;-74
2022/12/28 01:01:19;;;;;;;12.93;6.95;;;;;;;;;;4983428;28;20053;-74
2022/12/28 01:03:45;;;;;;;12.10;7.30;;;;;;;;;;5012754;28;20375;-74
2022/12/28 01:06:13;;;;;;;11.48;6.55;;;;;;;;;;4996242;28;20060;-74
2022/12/28 01:08:39;;;;;;;13.57;6.68;;;;;;;;;;5013374;28;20116;-73
2022/12/28 01:11:19;;;;;;;10.10;7.10;;;;;;;;;;5012398;28;20056;-73
2022/12/28 01:13:45;;;;;;;16.95;7.15;;;;;;;;;;5005622;28;20049;-73
2022/12/28 01:16:15;;;;;;;10.98;7.15;;;;;;;;;;4995444;28;20100;-73
2022/12/28 01:18:41;;;;;;;11.77;7.55;;;;;;;;;;5008137;28;20049;-73
2022/12/28 01:21:12;;;;;;;13.38;7.57;;;;;;;;;;4995818;28;20049;-73
2022/12/28 01:23:38;;;;;;;12.45;7.40;;;;;;;;;;5017170;28;20045;-73
2022/12/28 01:26:04;;;;;;;12.63;7.75;;;;;;;;;;5013273;28;20981;-73
2022/12/28 01:28:30;;;;;;;11.50;7.53;;;;;;;;;;4997680;28;20054;-73
2022/12/28 01:30:56;;;;;;;14.18;7.63;;;;;;;;;;5003963;28;20042;-73
2022/12/28 01:33:22;;;;;;;13.07;7.85;;;;;;;;;;5032328;28;20041;-73
2022/12/28 01:35:48;;;;;;;15.20;8.60;;;;;;;;;;5036561;28;20544;-73
2022/12/28 01:38:14;;;;;;;14.25;8.50;;;;;;;;;;5016872;28;20435;-73
2022/12/28 01:40:43;;;;;;;9.70;7.45;;;;;;;;;;5012055;28;20486;-73
2022/12/28 01:43:16;;;;;;;12.25;7.63;;;;;;;;;;4996223;28;20104;-73
2022/12/28 01:45:46;;;;;;;15.70;8.65;;;;;;;;;;4980654;28;20482;-73
2022/12/28 01:48:19;;;;;;;12.30;8.20;;;;;;;;;;5031835;28;20038;-73
2022/12/28 01:50:45;;;;;;;14.38;8.60;;;;;;;;;;5008258;28;20050;-73
2022/12/28 01:53:11;;;;;;;15.60;8.05;;;;;;;;;;4992125;28;20621;-74
2022/12/28 01:55:41;;;;;;;15.88;8.88;;;;;;;;;;4996776;28;20545;-74
2022/12/28 01:58:39;;;;;;;16.67;10.18;;;;;;;;;;4997020;28;20046;-73
2022/12/28 02:01:05;;;;;;;19.08;10.35;;;;;;;;;;4964970;28;20488;-73
2022/12/28 02:03:32;;;;;;;15.65;10.25;;;;;;;;;;4995340;28;20042;-74
2022/12/28 02:05:59;;;;;;;14.38;10.50;;;;;;;;;;4982715;28;20463;-73
2022/12/28 02:08:27;;;;;;;15.85;10.32;;;;;;;;;;5011728;28;20119;-73
2022/12/28 02:10:54;;;;;;;18.58;10.90;;;;;;;;;;5014702;28;20086;-73
2022/12/28 02:13:21;;;;;;;18.85;10.90;;;;;;;;;;5015176;28;20046;-73
2022/12/28 02:15:47;;;;;;;19.70;11.70;;;;;;;;;;5015146;28;20046;-74
2022/12/28 02:18:14;;;;;;;18.05;10.52;;;;;;;;;;5017152;28;20081;-73
2022/12/28 02:20:46;;;;;;;16.45;11.15;;;;;;;;;;5009621;28;20046;-73
2022/12/28 02:23:21;;;;;;;17.58;11.95;;;;;;;;;;4978607;28;20097;-73
2022/12/28 02:26:07;;;;;;;19.23;11.50;;;;;;;;;;5008013;28;20049;-73
2022/12/28 02:28:52;;;;;;;20.77;12.13;;;;;;;;;;5012945;28;20112;-74
2022/12/28 02:31:21;;;;;;;18.00;11.85;;;;;;;;;;5006781;28;20076;-74
2022/12/28 02:33:56;;;;;;;18.00;11.98;;;;;;;;;;5014565;28;20052;-74
2022/12/28 02:36:24;;;;;;;18.73;12.45;;;;;;;;;;5014442;28;20102;-74
2022/12/28 02:38:50;;;;;;;19.80;12.93;;;;;;;;;;5015668;28;20041;-74
2022/12/28 02:41:18;;;;;;;19.83;13.13;;;;;;;;;;5014075;28;20056;-74
2022/12/28 02:43:44;;;;;;;16.85;11.85;;;;;;;;;;5004147;28;20466;-74
2022/12/28 02:50:04;;;;;;;17.38;13.10;;;;;;;;;;5020705;28;20053;-73
2022/12/28 02:51:58;;;;;;;21.10;11.82;;;;;;;;;;5016301;28;20176;-73
2022/12/28 02:57:41;;;;;;;21.38;13.40;;;;;;;;;;4921693;29;20194;-73
2022/12/28 03:00:13;;;;;;;17.55;12.38;;;;;;;;;;4921350;29;20157;-74
2022/12/28 03:02:39;;;;;;;23.42;15.00;;;;;;;;;;4917414;29;20509;-74
2022/12/28 03:08:13;;;;;;;21.80;13.05;;;;;;;;;;4916809;29;20067;-74
2022/12/28 03:08:18;;;;;;;19.67;13.65;;;;;;;;;;4916234;29;20048;-74
2022/12/28 03:10:44;;;;;;;22.08;13.63;;;;;;;;;;4919926;29;20058;-74
2022/12/28 03:16:02;;;;;;;19.52;13.48;;;;;;;;;;4934594;29;20052;-74
2022/12/28 03:32:16;;;;;;;19.15;13.35;;;;;;;;;;4923594;28;20438;-74
2022/12/28 03:34:42;;;;;;;22.10;14.45;;;;;;;;;;4985795;28;20046;-74
2022/12/28 03:37:08;;;;;;;20.13;14.32;;;;;;;;;;4977504;28;20069;-74
2022/12/28 03:39:44;;;;;;;18.92;13.23;;;;;;;;;;4977349;28;20426;-74
2022/12/28 03:45:11;;;;;;;18.25;13.77;;;;;;;;;;4997833;28;20076;-74
2022/12/28 03:47:39;;;;;;;21.33;14.35;;;;;;;;;;5016485;28;20187;-73
2022/12/28 03:50:05;;;;;;;19.90;13.65;;;;;;;;;;5018729;28;20047;-74
2022/12/28 03:52:32;;;;;;;18.98;12.70;;;;;;;;;;5001447;28;20127;-74
2022/12/28 03:54:58;;;;;;;22.20;14.55;;;;;;;;;;5014151;28;20037;-73
2022/12/28 03:57:24;;;;;;;23.27;13.70;;;;;;;;;;5014267;28;20049;-73
2022/12/28 03:59:50;;;;;;;21.60;14.52;;;;;;;;;;5013953;28;20096;-73
2022/12/28 04:02:16;;;;;;;17.17;13.40;;;;;;;;;;4996435;28;20046;-73
2022/12/28 04:04:42;;;;;;;21.13;15.27;;;;;;;;;;4996952;28;20073;-73
2022/12/28 04:07:08;;;;;;;21.80;14.55;;;;;;;;;;5023517;28;20089;-73
2022/12/28 04:09:34;;;;;;;23.95;15.43;;;;;;;;;;4977104;28;20049;-74
2022/12/28 04:12:00;;;;;;;22.25;15.07;;;;;;;;;;4994573;28;20046;-74
2022/12/28 04:14:26;;;;;;;23.02;14.13;;;;;;;;;;4994663;28;20048;-74
2022/12/28 04:16:52;;;;;;;22.42;14.82;;;;;;;;;;4994267;28;20089;-73
2022/12/28 04:19:18;;;;;;;20.80;14.68;;;;;;;;;;5008365;28;20046;-73
2022/12/28 04:21:44;;;;;;;21.80;15.77;;;;;;;;;;5003772;28;20054;-73
2022/12/28 04:24:11;;;;;;;23.63;16.90;;;;;;;;;;4996603;28;20042;-74
2022/12/28 04:26:37;;;;;;;23.13;15.45;;;;;;;;;;4996112;28;20073;-73
2022/12/28 04:29:03;;;;;;;23.95;15.68;;;;;;;;;;4996312;28;20123;-73
2022/12/28 04:31:29;;;;;;;25.70;16.00;;;;;;;;;;5013627;28;20041;-73
2022/12/28 04:33:59;;;;;;;25.38;16.20;;;;;;;;;;4997851;28;20498;-73
2022/12/28 04:36:25;;;;;;;20.95;15.48;;;;;;;;;;5013432;28;20046;-73
2022/12/28 04:38:51;;;;;;;26.58;16.05;;;;;;;;;;5013836;28;20073;-73
2022/12/28 04:41:17;;;;;;;21.33;14.95;;;;;;;;;;5013483;28;20393;-74
2022/12/28 04:43:43;;;;;;;23.65;16.05;;;;;;;;;;4993254;28;20046;-74
2022/12/28 04:46:11;;;;;;;26.42;17.27;;;;;;;;;;4977024;28;20053;-74
2022/12/28 04:48:37;;;;;;;22.88;15.45;;;;;;;;;;4960480;28;20055;-74
2022/12/28 04:51:08;;;;;;;25.00;15.60;;;;;;;;;;5029048;28;20052;-74
2022/12/28 04:53:38;;;;;;;23.98;15.10;;;;;;;;;;5032764;28;20052;-74
2022/12/28 04:56:04;;;;;;;23.17;15.10;;;;;;;;;;5012429;28;20062;-74
2022/12/28 04:58:31;;;;;;;23.48;16.52;;;;;;;;;;5012662;28;20093;-74
2022/12/28 05:01:07;;;;;;;25.08;15.57;;;;;;;;;;5017437;28;20082;-74
2022/12/28 05:03:35;;;;;;;18.50;13.63;;;;;;;;;;5017307;28;20486;-74
2022/12/28 05:06:01;;;;;;;23.95;15.48;;;;;;;;;;5032818;28;20041;-74
2022/12/28 05:08:27;;;;;;;20.95;14.68;;;;;;;;;;5019438;28;20061;-74
2022/12/28 05:10:53;;;;;;;27.73;16.00;;;;;;;;;;5011165;28;20042;-74
2022/12/28 05:13:19;;;;;;;20.83;14.65;;;;;;;;;;4997802;28;20104;-74
2022/12/28 05:15:45;;;;;;;23.38;16.15;;;;;;;;;;5015494;28;20062;-74
2022/12/28 05:18:12;;;;;;;26.48;14.98;;;;;;;;;;4999559;28;20057;-74
2022/12/28 05:20:38;;;;;;;19.58;14.38;;;;;;;;;;5030975;28;20053;-74
2022/12/28 05:23:04;;;;;;;23.75;15.80;;;;;;;;;;5002907;28;20050;-74
2022/12/28 05:25:30;;;;;;;25.15;15.05;;;;;;;;;;5024359;28;20050;-74
2022/12/28 05:27:56;;;;;;;22.13;15.07;;;;;;;;;;4999568;28;20128;-74
2022/12/28 05:30:22;;;;;;;26.90;15.38;;;;;;;;;;5016027;28;20097;-74
2022/12/28 05:32:48;;;;;;;23.63;15.13;;;;;;;;;;5015640;28;20049;-74
2022/12/28 05:35:14;;;;;;;22.15;14.65;;;;;;;;;;5004243;28;20050;-74
2022/12/28 05:37:40;;;;;;;20.88;13.18;;;;;;;;;;4997547;28;20042;-74
2022/12/28 05:40:06;;;;;;;23.75;13.68;;;;;;;;;;4998372;28;20046;-74
2022/12/28 05:42:34;;;;;;;23.92;14.40;;;;;;;;;;5016783;28;20046;-74
2022/12/28 05:45:00;;;;;;;22.45;12.93;;;;;;;;;;4999177;28;20470;-74
2022/12/28 05:47:27;;;;;;;25.23;14.13;;;;;;;;;;4999092;28;20393;-74
2022/12/28 05:49:53;;;;;;;23.50;14.77;;;;;;;;;;4997845;28;20046;-74
2022/12/28 05:52:19;;;;;;;18.75;12.20;;;;;;;;;;5016365;28;20494;-74
2022/12/28 05:54:45;;;;;;;23.90;13.35;;;;;;;;;;5005560;28;20493;-74
2022/12/28 05:57:11;;;;;;;21.98;12.85;;;;;;;;;;5016376;28;20049;-74
2022/12/28 05:59:37;;;;;;;19.52;10.98;;;;;;;;;;5015414;28;20046;-74
2022/12/28 06:02:03;;;;;;;18.55;10.75;;;;;;;;;;5012780;28;20505;-74
2022/12/28 06:04:29;;;;;;;20.88;10.10;;;;;;;;;;5014884;28;20390;-74
2022/12/28 06:06:55;;;;;;;17.25;9.45;;;;;;;;;;5019987;28;20048;-75
2022/12/28 06:09:21;;;;;;;13.40;8.88;;;;;;;;;;5021226;28;20482;-75
2022/12/28 06:11:47;;;;;;;16.90;10.00;;;;;;;;;;5000285;28;20046;-75
2022/12/28 06:14:13;;;;;;;15.30;8.88;;;;;;;;;;4998424;28;20042;-75
2022/12/28 06:16:40;;;;;;;12.52;8.20;;;;;;;;;;5008606;28;20085;-75
2022/12/28 06:19:07;;;;;;;16.42;8.68;;;;;;;;;;5017980;28;20053;-74
2022/12/28 06:21:34;;;;;;;17.48;8.43;;;;;;;;;;5028944;28;20147;-74
2022/12/28 06:24:01;;;;;;;13.93;7.97;;;;;;;;;;5016292;28;20470;-74
2022/12/28 06:26:31;;;;;;;10.90;7.63;;;;;;;;;;5015274;28;20085;-74
2022/12/28 06:28:57;;;;;;;13.43;7.22;;;;;;;;;;5000370;28;20038;-74
2022/12/28 06:31:24;;;;;;;13.60;8.10;;;;;;;;;;5025658;28;20049;-74
2022/12/28 06:33:55;;;;;;;11.80;7.05;;;;;;;;;;5014459;28;20053;-74
2022/12/28 06:36:25;;;;;;;11.73;7.28;;;;;;;;;;4981847;28;20062;-74
2022/12/28 06:38:52;;;;;;;16.67;7.80;;;;;;;;;;5015498;28;20117;-74
2022/12/28 06:41:19;;;;;;;14.05;8.73;;;;;;;;;;5015157;28;20042;-74
2022/12/28 06:43:46;;;;;;;13.85;8.35;;;;;;;;;;5015622;28;20069;-74
2022/12/28 06:46:13;;;;;;;13.68;8.20;;;;;;;;;;5008891;28;20120;-74
2022/12/28 06:48:42;;;;;;;14.18;8.32;;;;;;;;;;4981842;28;20054;-74
2022/12/28 06:51:12;;;;;;;14.25;7.57;;;;;;;;;;4997620;28;20049;-74
2022/12/28 06:53:38;;;;;;;12.77;8.18;;;;;;;;;;5005920;28;20053;-74
2022/12/28 06:56:06;;;;;;;13.05;7.85;;;;;;;;;;4994693;28;20207;-74
2022/12/28 06:58:32;;;;;;;17.52;8.60;;;;;;;;;;4999585;28;20080;-74
2022/12/28 07:01:08;;;;;;;13.35;8.52;;;;;;;;;;5016621;28;20050;-74
2022/12/28 07:03:34;;;;;;;12.80;7.67;;;;;;;;;;4995840;28;20057;-74
2022/12/28 07:06:00;;;;;;;13.70;7.95;;;;;;;;;;5007983;28;20041;-74
2022/12/28 07:08:27;;;;;;;13.32;7.45;;;;;;;;;;5013942;28;20502;-75
2022/12/28 07:10:53;;;;;;;13.43;7.53;;;;;;;;;;4995809;28;20133;-74
2022/12/28 07:13:19;;;;;;;14.30;8.38;;;;;;;;;;5004631;28;20042;-75
2022/12/28 07:15:45;;;;;;;9.65;7.15;;;;;;;;;;5016868;28;20489;-75
2022/12/28 07:18:11;;;;;;;12.07;7.03;;;;;;;;;;5034308;28;20405;-75
2022/12/28 07:20:37;;;;;;;16.15;7.80;;;;;;;;;;5034158;28;20052;-75
2022/12/28 07:23:03;;;;;;;13.50;7.22;;;;;;;;;;5006245;28;20526;-75
2022/12/28 07:25:30;;;;;;;15.65;7.22;;;;;;;;;;5006684;28;20414;-75
2022/12/28 07:27:59;;;;;;;15.57;7.47;;;;;;;;;;4988922;28;20073;-75
2022/12/28 07:30:25;;;;;;;18.02;7.45;;;;;;;;;;5014160;28;20103;-75
2022/12/28 07:32:51;;;;;;;19.35;7.57;;;;;;;;;;4996571;28;20446;-75
2022/12/28 07:35:17;;;;;;;20.98;7.15;;;;;;;;;;4996560;28;20049;-75
2022/12/28 07:37:44;;;;;;;16.33;7.05;;;;;;;;;;5014370;28;20459;-75
2022/12/28 07:40:10;;;;;;;18.92;7.15;;;;;;;;;;5014255;28;20116;-75
2022/12/28 07:42:36;;;;;;;21.10;7.03;;;;;;;;;;5006060;28;20046;-75
2022/12/28 07:45:09;;;;;;;16.88;7.07;;;;;;;;;;5014268;28;20053;-75
2022/12/28 07:47:35;;;;;;;18.30;6.88;;;;;;;;;;5013083;28;20049;-74
2022/12/28 07:50:01;;;;;;;24.73;7.47;;;;;;;;;;5010201;28;20490;-74
2022/12/28 07:52:27;;;;;;;17.45;5.90;;;;;;;;;;5014233;28;20426;-75
2022/12/28 07:54:53;;;;;;;15.55;5.63;;;;;;;;;;4997012;28;20073;-74
2022/12/28 07:57:20;;;;;;;12.63;4.40;;;;;;;;;;4995565;28;20466;-75
2022/12/28 07:59:46;;;;;;;11.15;4.40;;;;;;;;;;4981806;28;20455;-75
2022/12/28 08:02:12;;;;;;;9.57;3.67;;;;;;;;;;5011471;28;20046;-75
2022/12/28 08:04:38;;;;;;;10.07;3.90;;;;;;;;;;5015902;28;20077;-75
2022/12/28 08:07:04;;;;;;;9.40;3.50;;;;;;;;;;4999488;28;20049;-75
2022/12/28 08:09:30;;;;;;;11.82;3.45;;;;;;;;;;5014286;28;20045;-75
2022/12/28 08:11:56;;;;;;;14.38;4.00;;;;;;;;;;4994326;28;20470;-76
2022/12/28 08:14:22;;;;;;;16.58;4.30;;;;;;;;;;4996011;28;20141;-76
2022/12/28 08:16:48;;;;;;;13.20;4.93;;;;;;;;;;5004445;28;20133;-76
2022/12/28 08:19:17;;;;;;;15.40;5.15;;;;;;;;;;5019323;28;20069;-80
2022/12/28 08:21:44;;;;;;;21.98;5.80;;;;;;;;;;4998292;28;20046;-79
2022/12/28 08:24:14;;;;;;;22.48;6.38;;;;;;;;;;5015524;28;20046;-78
2022/12/28 08:26:43;;;;;;;15.23;5.68;;;;;;;;;;5014344;28;20073;-78
2022/12/28 08:29:11;;;;;;;15.38;6.13;;;;;;;;;;5009962;28;20093;-78
2022/12/28 08:31:39;;;;;;;19.77;6.20;;;;;;;;;;5015459;28;20179;-79
2022/12/28 08:34:06;;;;;;;13.27;5.38;;;;;;;;;;5025220;28;20057;-78
2022/12/28 08:36:33;;;;;;;10.95;4.88;;;;;;;;;;5013429;28;20039;-78
2022/12/28 08:38:59;;;;;;;10.23;4.57;;;;;;;;;;4996871;28;20402;-86
2022/12/28 08:41:26;;;;;;;12.52;5.32;;;;;;;;;;4994463;28;20518;-79
2022/12/28 08:43:53;;;;;;;8.93;4.57;;;;;;;;;;5005938;28;20046;-80
2022/12/28 08:46:20;;;;;;;7.80;4.55;;;;;;;;;;5010204;28;20046;-80
2022/12/28 08:48:50;;;;;;;8.60;4.57;;;;;;;;;;5009435;28;20114;-80
2022/12/28 08:51:20;;;;;;;6.80;4.18;;;;;;;;;;5014114;28;20042;-80
2022/12/28 08:53:47;;;;;;;8.65;4.07;;;;;;;;;;5010619;28;20043;-80
2022/12/28 08:56:15;;;;;;;7.95;4.65;;;;;;;;;;5006897;28;20038;-80
2022/12/28 08:58:45;;;;;;;6.07;4.75;;;;;;;;;;4997637;28;20042;-84
2022/12/28 09:01:12;;;;;;;9.23;4.20;;;;;;;;;;4995430;28;20050;-81
2022/12/28 09:06:33;;;;;;;7.47;3.70;;;;;;;;;;5010093;28;20096;-78
2022/12/28 09:09:03;;;;;;;9.77;3.67;;;;;;;;;;5003146;28;20049;-82
2022/12/28 09:11:32;;;;;;;4.95;3.50;;;;;;;;;;4997801;28;20042;-79
2022/12/28 09:14:04;;;;;;;5.07;3.20;;;;;;;;;;5011672;28;20390;-78
2022/12/28 09:16:31;;;;;;;6.90;3.58;;;;;;;;;;5013201;28;20076;-79
2022/12/28 09:19:01;;;;;;;4.72;2.97;;;;;;;;;;5013018;28;20390;-77
2022/12/28 09:21:29;;;;;;;5.50;3.10;;;;;;;;;;5016108;28;20045;-78
2022/12/28 09:23:55;;;;;;;5.30;2.80;;;;;;;;;;5003263;28;20204;-78
2022/12/28 09:26:22;;;;;;;5.15;2.60;;;;;;;;;;5012270;28;20046;-78
2022/12/28 09:28:50;;;;;;;5.50;2.53;;;;;;;;;;5010093;28;20069;-78
2022/12/28 09:31:17;;;;;;;6.38;3.00;;;;;;;;;;5013324;28;20053;-78
2022/12/28 09:34:00;;;;;;;4.05;2.15;;;;;;;;;;5013588;28;20046;-78
2022/12/28 09:36:37;;;;;;;2.45;1.67;;;;;;;;;;5012714;28;20050;-78
2022/12/28 09:39:04;;;;;;;5.35;2.13;;;;;;;;;;5001299;28;20465;-78
2022/12/28 09:41:47;;;;;;;2.97;2.00;;;;;;;;;;4994220;28;20421;-78
2022/12/28 09:44:16;;;;;;;3.47;1.80;;;;;;;;;;5003717;28;20132;-78
2022/12/28 09:46:51;;;;;;;3.47;2.05;;;;;;;;;;5018651;28;20036;-78
2022/12/28 09:49:18;;;;;;;2.78;1.90;;;;;;;;;;5016689;28;20050;-78
2022/12/28 09:52:07;;;;;;;3.40;2.00;;;;;;;;;;5010276;28;20037;-78
2022/12/28 09:54:33;;;;;;;6.38;3.15;;;;;;;;;;4917413;29;20048;-78
2022/12/28 09:56:59;;;;;;;3.42;2.05;;;;;;;;;;4916721;29;20075;-78
2022/12/28 09:59:28;;;;;;;3.38;2.03;;;;;;;;;;4917419;29;20056;-78
2022/12/28 10:01:58;;;;;;;4.63;2.22;;;;;;;;;;4917020;29;20069;-78
2022/12/28 10:04:24;;;;;;;4.47;2.70;;;;;;;;;;4916986;29;20048;-77
2022/12/28 10:06:50;;;;;;;4.60;3.42;;;;;;;;;;4919246;29;20109;-77
2022/12/28 10:09:26;;;;;;;4.90;3.45;;;;;;;;;;4924655;29;20048;-77
2022/12/28 10:12:00;;;;;;;5.07;3.75;;;;;;;;;;4900876;29;20104;-77
2022/12/28 10:14:33;;;;;;;6.93;4.03;;;;;;;;;;4915124;29;20044;-77
2022/12/28 10:16:59;;;;;;;6.78;4.15;;;;;;;;;;4917559;29;20090;-77
2022/12/28 10:19:26;;;;;;;5.72;3.53;;;;;;;;;;4901399;29;20056;-76
2022/12/28 10:21:58;;;;;;;7.75;3.85;;;;;;;;;;4883571;29;20504;-76
2022/12/28 10:24:25;;;;;;;5.18;3.40;;;;;;;;;;4915534;29;20056;-76
2022/12/28 10:26:51;;;;;;;5.85;3.95;;;;;;;;;;4900035;29;20087;-76
2022/12/28 10:29:19;;;;;;;4.93;3.38;;;;;;;;;;4915777;29;20052;-76
2022/12/28 10:31:55;;;;;;;5.55;3.80;;;;;;;;;;4962126;28;20055;-76
2022/12/28 10:34:24;;;;;;;4.15;3.17;;;;;;;;;;4992957;28;20050;-76
2022/12/28 10:36:50;;;;;;;4.15;3.00;;;;;;;;;;4964057;28;20061;-77
2022/12/28 10:39:20;;;;;;;3.53;2.53;;;;;;;;;;4978003;28;20113;-84
2022/12/28 10:41:47;;;;;;;3.92;2.65;;;;;;;;;;4982301;28;20102;-77
2022/12/28 10:44:24;;;;;;;3.40;2.80;;;;;;;;;;4996566;28;20049;-78
2022/12/28 10:46:53;;;;;;;3.25;2.40;;;;;;;;;;4996673;28;20081;-76
2022/12/28 10:49:20;;;;;;;3.40;2.50;;;;;;;;;;4994955;28;20042;-76
2022/12/28 10:52:04;;;;;;;3.22;2.63;;;;;;;;;;4996584;28;20054;-77
2022/12/28 10:54:36;;;;;;;3.80;2.88;;;;;;;;;;4996138;28;20047;-79
2022/12/28 10:57:03;;;;;;;4.30;3.13;;;;;;;;;;4996059;28;20049;-80
2022/12/28 10:59:30;;;;;;;4.35;3.10;;;;;;;;;;4995169;28;20126;-78
2022/12/28 11:02:15;;;;;;;6.53;4.45;;;;;;;;;;4994801;28;20126;-77
2022/12/28 11:04:55;;;;;;;8.32;5.57;;;;;;;;;;4969902;28;20038;-78
2022/12/28 11:07:27;;;;;;;9.32;7.20;;;;;;;;;;4975437;28;20122;-75
2022/12/28 11:09:53;;;;;;;8.73;7.20;;;;;;;;;;4993761;28;20042;-75
2022/12/28 11:12:23;;;;;;;13.50;9.05;;;;;;;;;;4996427;28;20402;-82
2022/12/28 11:14:51;;;;;;;13.80;10.00;;;;;;;;;;4998889;28;20050;-78
2022/12/28 11:17:21;;;;;;;15.18;10.63;;;;;;;;;;4996751;28;20118;-83
2022/12/28 11:19:48;;;;;;;19.40;11.05;;;;;;;;;;4973255;28;20085;-79
2022/12/28 11:22:16;;;;;;;19.08;10.75;;;;;;;;;;4976399;28;20098;-78
2022/12/28 11:24:42;;;;;;;17.90;10.82;;;;;;;;;;4975774;28;20042;-79
2022/12/28 11:27:16;;;;;;;16.27;11.13;;;;;;;;;;4975554;28;20560;-79
2022/12/28 11:29:44;;;;;;;15.88;10.13;;;;;;;;;;4975767;28;20239;-79
2022/12/28 11:32:19;;;;;;;17.90;10.02;;;;;;;;;;4975760;28;20046;-79
2022/12/28 11:34:45;;;;;;;15.45;9.55;;;;;;;;;;4961580;28;20046;-78
2022/12/28 11:37:14;;;;;;;16.58;8.45;;;;;;;;;;4975218;28;20563;-78
2022/12/28 11:39:43;;;;;;;13.57;7.40;;;;;;;;;;4975270;28;20053;-77
2022/12/28 11:42:09;;;;;;;10.00;6.68;;;;;;;;;;4988789;28;20113;-84
2022/12/28 11:44:56;;;;;;;9.10;6.72;;;;;;;;;;4995211;28;20128;-78
2022/12/28 11:47:25;;;;;;;9.63;6.82;;;;;;;;;;4994819;28;20050;-78
2022/12/28 11:49:52;;;;;;;10.00;6.45;;;;;;;;;;4995403;28;20530;-78
2022/12/28 11:52:22;;;;;;;8.23;5.63;;;;;;;;;;4994816;28;20122;-78
2022/12/28 11:54:58;;;;;;;7.53;5.80;;;;;;;;;;4995820;28;20522;-79
2022/12/28 11:57:42;;;;;;;7.88;5.78;;;;;;;;;;4994795;28;20126;-77
2022/12/28 12:00:20;;;;;;;6.68;5.35;;;;;;;;;;4988070;28;20083;-77
2022/12/28 12:02:49;;;;;;;8.73;5.70;;;;;;;;;;4994624;28;20060;-77
2022/12/28 12:05:35;;;;;;;7.90;5.55;;;;;;;;;;4995766;28;20046;-77
2022/12/28 12:08:02;;;;;;;9.60;7.68;;;;;;;;;;4994033;28;20120;-78
2022/12/28 12:10:28;;;;;;;8.57;6.57;;;;;;;;;;4993978;28;20076;-77
2022/12/28 12:12:54;;;;;;;8.07;6.32;;;;;;;;;;4994081;28;20479;-77
2022/12/28 12:15:40;;;;;;;8.48;6.70;;;;;;;;;;4994215;28;20046;-77
2022/12/28 12:18:14;;;;;;;8.60;6.20;;;;;;;;;;4974546;28;20054;-77
2022/12/28 12:20:58;;;;;;;8.40;6.10;;;;;;;;;;4991037;28;20121;-77
2022/12/28 12:23:47;;;;;;;8.02;6.18;;;;;;;;;;5008846;28;20046;-77
2022/12/28 12:26:17;;;;;;;8.05;6.20;;;;;;;;;;5013527;28;20042;-77
2022/12/28 12:28:43;;;;;;;8.23;6.60;;;;;;;;;;5013620;28;20046;-77
2022/12/28 12:31:13;;;;;;;7.20;5.85;;;;;;;;;;5008147;28;20059;-77
2022/12/28 12:33:42;;;;;;;8.65;6.60;;;;;;;;;;4975556;28;20097;-76
2022/12/28 12:36:27;;;;;;;8.98;6.18;;;;;;;;;;4975362;28;20082;-76
2022/12/28 12:38:53;;;;;;;9.82;8.13;;;;;;;;;;4975551;28;20043;-77
2022/12/28 12:41:22;;;;;;;9.07;7.32;;;;;;;;;;4992564;28;20051;-78
2022/12/28 12:43:57;;;;;;;11.45;8.23;;;;;;;;;;4996953;28;20038;-77
2022/12/28 12:46:23;;;;;;;10.33;8.50;;;;;;;;;;5000893;28;20065;-77
2022/12/28 12:49:08;;;;;;;9.15;7.75;;;;;;;;;;5003262;28;21021;-78
2022/12/28 12:51:54;;;;;;;11.63;8.13;;;;;;;;;;4975436;28;20049;-77
2022/12/28 12:54:34;;;;;;;11.20;8.52;;;;;;;;;;4974940;28;20505;-77
2022/12/28 12:57:00;;;;;;;10.82;7.93;;;;;;;;;;4975245;28;20046;-77
2022/12/28 12:59:35;;;;;;;9.98;7.75;;;;;;;;;;4975015;28;20098;-77
2022/12/28 13:02:10;;;;;;;10.05;8.13;;;;;;;;;;4974468;28;20055;-77
2022/12/28 13:04:39;;;;;;;10.63;7.28;;;;;;;;;;5001654;28;20060;-77
2022/12/28 13:07:05;;;;;;;8.95;6.95;;;;;;;;;;5013233;28;20053;-77
2022/12/28 13:09:33;;;;;;;8.82;6.82;;;;;;;;;;5013600;28;20050;-78
2022/12/28 13:12:00;;;;;;;10.52;6.93;;;;;;;;;;5013091;28;20049;-77
2022/12/28 13:14:27;;;;;;;8.90;6.90;;;;;;;;;;5013381;28;20060;-77
2022/12/28 13:16:55;;;;;;;8.88;7.68;;;;;;;;;;5009757;28;20470;-77
2022/12/28 13:19:22;;;;;;;10.65;8.18;;;;;;;;;;4998927;28;20057;-78
2022/12/28 13:21:49;;;;;;;11.93;8.00;;;;;;;;;;5017005;28;20125;-78
2022/12/28 13:24:21;;;;;;;11.98;8.43;;;;;;;;;;4999703;28;20042;-78
2022/12/28 13:26:48;;;;;;;11.00;8.35;;;;;;;;;;5016939;28;20036;-78
2022/12/28 13:29:18;;;;;;;12.35;8.25;;;;;;;;;;5017362;28;20107;-77
2022/12/28 13:31:48;;;;;;;11.35;8.70;;;;;;;;;;5017208;28;20082;-76
2022/12/28 13:34:28;;;;;;;10.85;7.65;;;;;;;;;;4999983;28;20053;-77
2022/12/28 13:36:56;;;;;;;9.13;7.93;;;;;;;;;;4982996;28;20476;-77
2022/12/28 13:39:23;;;;;;;11.73;8.30;;;;;;;;;;4999343;28;20081;-77
2022/12/28 13:41:51;;;;;;;13.13;9.23;;;;;;;;;;5015420;28;20190;-77
2022/12/28 13:44:30;;;;;;;9.43;7.15;;;;;;;;;;5006846;28;20046;-77
2022/12/28 13:46:59;;;;;;;10.07;6.30;;;;;;;;;;5018176;28;20053;-77
2022/12/28 13:49:26;;;;;;;9.63;6.55;;;;;;;;;;5018903;28;20049;-77
2022/12/28 13:51:53;;;;;;;8.75;6.80;;;;;;;;;;5018410;28;20077;-77
2022/12/28 13:54:19;;;;;;;9.50;6.65;;;;;;;;;;5000698;28;20398;-77
2022/12/28 13:56:46;;;;;;;12.02;6.05;;;;;;;;;;4981271;28;20053;-77
2022/12/28 13:59:14;;;;;;;8.55;5.95;;;;;;;;;;5016338;28;20042;-77
2022/12/28 14:01:42;;;;;;;7.00;5.80;;;;;;;;;;5017568;28;20038;-77
2022/12/28 14:04:11;;;;;;;9.43;5.55;;;;;;;;;;5006280;28;20056;-77
2022/12/28 14:06:37;;;;;;;10.00;5.93;;;;;;;;;;5009644;28;20119;-77
2022/12/28 14:09:03;;;;;;;8.02;6.13;;;;;;;;;;5021944;28;20046;-77
2022/12/28 14:11:29;;;;;;;7.88;5.95;;;;;;;;;;4988416;28;20041;-77
2022/12/28 14:13:56;;;;;;;9.38;5.80;;;;;;;;;;5024471;28;20053;-77
2022/12/28 14:16:23;;;;;;;8.55;5.88;;;;;;;;;;4998106;28;20054;-79
2022/12/28 14:18:50;;;;;;;7.65;5.53;;;;;;;;;;5016506;28;20383;-78
2022/12/28 14:21:30;;;;;;;8.73;6.03;;;;;;;;;;5015663;28;20046;-78
2022/12/28 14:24:02;;;;;;;8.65;5.43;;;;;;;;;;5014778;28;20054;-77
2022/12/28 14:26:29;;;;;;;9.25;5.78;;;;;;;;;;4997883;28;20038;-78
2022/12/28 14:28:55;;;;;;;9.50;6.10;;;;;;;;;;5002630;28;20050;-80
2022/12/28 14:31:23;;;;;;;9.15;6.18;;;;;;;;;;5019963;28;20041;-81
2022/12/28 14:33:49;;;;;;;9.20;6.07;;;;;;;;;;5018860;28;20104;-80
2022/12/28 14:36:22;;;;;;;10.02;6.82;;;;;;;;;;5013388;28;20041;-79
2022/12/28 14:38:49;;;;;;;8.55;6.32;;;;;;;;;;4982237;28;20069;-79
2022/12/28 14:41:17;;;;;;;10.70;6.15;;;;;;;;;;4999819;28;20065;-79
2022/12/28 14:43:44;;;;;;;9.25;5.60;;;;;;;;;;4999406;28;20494;-79
2022/12/28 14:46:14;;;;;;;11.20;5.90;;;;;;;;;;4990368;28;20463;-78
2022/12/28 14:48:41;;;;;;;9.52;5.65;;;;;;;;;;5004046;28;20053;-80
2022/12/28 14:51:16;;;;;;;11.98;5.90;;;;;;;;;;5006127;28;20061;-79
2022/12/28 14:53:43;;;;;;;13.13;5.93;;;;;;;;;;5011112;28;20046;-79
2022/12/28 14:56:15;;;;;;;10.93;6.20;;;;;;;;;;5015619;28;20434;-79
2022/12/28 14:58:49;;;;;;;11.07;6.20;;;;;;;;;;5022504;28;20132;-79
2022/12/28 15:01:15;;;;;;;11.90;7.32;;;;;;;;;;5021077;28;20050;-80
2022/12/28 15:03:55;;;;;;;10.00;6.00;;;;;;;;;;5001654;28;20061;-80
2022/12/28 15:06:22;;;;;;;14.23;5.55;;;;;;;;;;5017098;28;20531;-80
2022/12/28 15:08:51;;;;;;;10.52;6.05;;;;;;;;;;5002382;28;20092;-80